Time;durP1;ratioP1;P1;durP2;ratioP2;P2;SDS_P1;SDS_P2;PMS_P1;PMS_P2;Temp;Humidity;BMP_temperature;BMP_pressure;BME280_temperature;BME280_humidity;BME280_pressure;Samples;Min_cycle;Max_cycle;Signal;HPM_P1;HPM_P2
2021/09/30 00:01:48;;;;;;;;;;;;;;;27.93;34.07;101681.00;5019000;28;986;-39
2021/09/30 00:04:14;;;;;;;;;;;;;;;27.96;33.97;101673.41;5019557;28;1093;-40
2021/09/30 00:06:39;;;;;;;;;;;;;;;27.94;34.10;101672.75;5019095;28;986;-39
2021/09/30 00:09:05;;;;;;;;;;;;;;;27.94;34.53;101674.59;5019273;28;1128;-40
2021/09/30 00:11:32;;;;;;;;;;;;;;;27.89;34.65;101674.25;5019091;28;942;-39
2021/09/30 00:14:24;;;;;;;;;;;;;;;28.06;33.99;101669.72;5019305;28;1370;-39
2021/09/30 00:32:50;;;;;;;;;;;;;;;28.14;34.20;101661.59;5026883;28;1070;-38
2021/09/30 00:46:03;;;;;;;;;;;;;;;28.05;34.20;101654.47;5018557;28;907;-39
2021/09/30 00:48:45;;;;;;;;;;;;;;;28.03;34.29;101654.66;5015127;28;1088;-38
2021/09/30 01:19:07;;;;;;;;;;;;;;;28.06;34.75;101654.31;5034127;28;803;-39
2021/09/30 01:40:31;;;;;;;;;;;;;;;28.04;34.94;101655.50;5037199;28;993;-39
2021/09/30 02:58:33;;;;;;;;;;;;;;;28.17;35.03;101641.47;5048906;28;937;-39
2021/09/30 03:01:03;;;;;;;;;;;;;;;28.24;34.90;101645.22;5034327;28;881;-39
2021/09/30 03:03:29;;;;;;;;;;;;;;;28.13;34.93;101649.06;5035902;28;949;-39
2021/09/30 03:05:54;;;;;;;;;;;;;;;28.16;35.28;101647.91;5051105;28;1175;-42
2021/09/30 03:08:21;;;;;;;;;;;;;;;27.50;32.41;101644.88;5050531;28;1035;-38
2021/09/30 03:10:51;;;;;;;;;;;;;;;26.96;32.34;101637.03;5036327;28;930;-38
2021/09/30 03:13:16;;;;;;;;;;;;;;;26.72;31.74;101631.31;5035638;28;1001;-38
2021/09/30 03:15:47;;;;;;;;;;;;;;;26.49;32.06;101637.22;5035666;28;1949;-38
2021/09/30 03:18:25;;;;;;;;;;;;;;;26.14;33.79;101644.34;5034346;28;1182;-39
2021/09/30 03:23:28;;;;;;;;;;;;;;;26.96;35.59;101637.84;5035882;28;1036;-38
2021/09/30 03:25:53;;;;;;;;;;;;;;;27.16;36.07;101634.13;5050742;28;1498;-39
2021/09/30 03:28:19;;;;;;;;;;;;;;;27.45;35.52;101636.41;5051602;28;1120;-38
2021/09/30 03:30:45;;;;;;;;;;;;;;;27.57;35.37;101639.69;5035675;28;1193;-38
2021/09/30 03:33:10;;;;;;;;;;;;;;;27.52;35.74;101639.31;5039381;28;978;-38
2021/09/30 03:35:35;;;;;;;;;;;;;;;27.45;35.89;101632.88;5038258;28;1961;-38
2021/09/30 03:38:01;;;;;;;;;;;;;;;27.48;36.17;101636.09;5052017;28;892;-38
2021/09/30 03:40:27;;;;;;;;;;;;;;;27.53;36.20;101640.16;5039693;28;1167;-39
2021/09/30 03:42:52;;;;;;;;;;;;;;;27.63;35.93;101655.22;5038693;28;930;-38
2021/09/30 03:45:17;;;;;;;;;;;;;;;27.65;36.36;101635.28;5040168;28;879;-38
2021/09/30 03:47:42;;;;;;;;;;;;;;;26.92;34.36;101641.03;5039676;28;942;-36
2021/09/30 03:50:14;;;;;;;;;;;;;;;26.32;33.41;101635.38;5039994;28;1028;-35
2021/09/30 03:53:01;;;;;;;;;;;;;;;25.83;35.40;101652.78;5038689;28;981;-37
2021/09/30 04:00:54;;;;;;;;;;;;;;;26.44;33.42;101641.41;5040319;28;930;-39
2021/09/30 04:03:19;;;;;;;;;;;;;;;26.57;33.18;101657.19;5038996;28;977;-39
2021/09/30 04:05:44;;;;;;;;;;;;;;;26.20;34.09;101651.81;5044089;28;1240;-37
2021/09/30 04:08:10;;;;;;;;;;;;;;;25.58;33.67;101656.03;5041575;28;820;-39
2021/09/30 04:10:35;;;;;;;;;;;;;;;25.42;33.19;101652.13;5040842;28;1001;-52
2021/09/30 04:13:00;;;;;;;;;;;;;;;25.46;32.92;101660.75;5039041;28;926;-42
2021/09/30 04:15:25;;;;;;;;;;;;;;;25.62;33.05;101653.88;5038939;28;1890;-42
2021/09/30 04:17:51;;;;;;;;;;;;;;;24.93;32.79;101646.94;5038587;28;1124;-43
2021/09/30 04:20:17;;;;;;;;;;;;;;;25.36;32.61;101659.97;5038676;28;962;-41
2021/09/30 04:22:43;;;;;;;;;;;;;;;25.54;32.54;101651.94;5038318;28;1237;-44
2021/09/30 04:25:08;;;;;;;;;;;;;;;24.64;33.02;101653.22;5042350;28;1182;-43
2021/09/30 04:27:34;;;;;;;;;;;;;;;24.63;32.61;101655.06;5038871;28;957;-42
2021/09/30 04:29:59;;;;;;;;;;;;;;;24.45;33.20;101661.16;5038168;28;1199;-44
2021/09/30 04:32:25;;;;;;;;;;;;;;;24.14;33.98;101657.75;5038701;28;977;-43
2021/09/30 04:34:50;;;;;;;;;;;;;;;24.31;33.43;101656.19;5038725;28;1902;-41
2021/09/30 04:37:16;;;;;;;;;;;;;;;24.45;32.98;101661.16;5038139;28;836;-42
2021/09/30 04:39:41;;;;;;;;;;;;;;;24.54;32.95;101664.81;5038729;28;910;-42
2021/09/30 04:42:06;;;;;;;;;;;;;;;24.55;33.16;101671.91;5041056;28;997;-42
2021/09/30 04:44:32;;;;;;;;;;;;;;;24.60;32.90;101678.69;5037363;28;976;-41
2021/09/30 04:46:57;;;;;;;;;;;;;;;24.72;32.97;101691.00;5038192;28;966;-42
2021/09/30 04:49:22;;;;;;;;;;;;;;;24.55;33.03;101681.81;5038238;28;1018;-41
2021/09/30 04:51:48;;;;;;;;;;;;;;;24.23;33.13;101613.03;5038176;28;977;-41
2021/09/30 04:54:13;;;;;;;;;;;;;;;24.94;33.15;101686.34;5038336;28;986;-42
2021/09/30 04:56:38;;;;;;;;;;;;;;;24.86;32.79;101681.63;5038261;28;1956;-43
2021/09/30 04:59:04;;;;;;;;;;;;;;;24.03;34.02;101685.59;5037607;28;1167;-42
2021/09/30 05:01:29;;;;;;;;;;;;;;;24.49;33.40;101690.47;5038247;28;1076;-41
2021/09/30 05:03:55;;;;;;;;;;;;;;;24.38;33.72;101695.00;5037970;28;926;-41
2021/09/30 05:06:20;;;;;;;;;;;;;;;24.26;33.57;101696.09;5037418;28;1073;-40
2021/09/30 05:08:48;;;;;;;;;;;;;;;24.49;33.18;101702.06;5037875;28;876;-41
2021/09/30 05:11:14;;;;;;;;;;;;;;;24.43;33.38;101700.81;5037825;28;1049;-41
2021/09/30 05:13:41;;;;;;;;;;;;;;;24.05;33.71;101700.59;5037340;28;954;-41
2021/09/30 05:16:07;;;;;;;;;;;;;;;24.24;33.51;101690.88;5037856;28;1898;-40
2021/09/30 05:18:33;;;;;;;;;;;;;;;24.24;33.59;101692.72;5038275;28;1040;-42
2021/09/30 05:20:58;;;;;;;;;;;;;;;23.72;34.48;101697.28;5037422;28;1076;-40
2021/09/30 05:23:24;;;;;;;;;;;;;;;24.25;33.82;101708.72;5035658;28;1147;-41
2021/09/30 05:25:49;;;;;;;;;;;;;;;24.32;33.68;101707.16;5038014;28;946;-42
2021/09/30 05:28:15;;;;;;;;;;;;;;;24.31;33.84;101715.34;5035006;28;1179;-41
2021/09/30 05:30:40;;;;;;;;;;;;;;;24.19;33.68;101706.59;5036494;28;1505;-41
2021/09/30 05:35:40;;;;;;;;;;;;;;;24.24;33.87;101704.31;4803684;26;7068;-45
2021/09/30 05:38:06;;;;;;;;;;;;;;;24.43;33.56;101702.63;5007988;28;1145;-52
2021/09/30 05:40:31;;;;;;;;;;;;;;;24.02;34.10;101691.97;5017286;28;975;-52
2021/09/30 05:42:58;;;;;;;;;;;;;;;23.69;35.04;101697.56;5017231;28;963;-47
2021/09/30 05:45:24;;;;;;;;;;;;;;;23.77;34.50;101694.16;5017044;28;1022;-49
2021/09/30 05:47:49;;;;;;;;;;;;;;;23.56;34.88;101700.44;5015476;28;1157;-48
2021/09/30 05:50:15;;;;;;;;;;;;;;;23.63;34.81;101693.56;5008285;28;967;-48
2021/09/30 05:52:40;;;;;;;;;;;;;;;23.87;34.58;101705.78;5010727;28;1141;-49
2021/09/30 05:55:06;;;;;;;;;;;;;;;23.27;35.43;101717.25;4997599;28;1894;-48
2021/09/30 05:57:31;;;;;;;;;;;;;;;23.72;34.81;101703.47;4998808;28;1149;-45
2021/09/30 06:00:08;;;;;;;;;;;;;;;23.81;34.65;101715.25;5010440;28;904;-47
2021/09/30 06:10:21;;;;;;;;;;;;;;;24.93;33.24;101703.47;5006380;28;916;-52
2021/09/30 06:12:51;;;;;;;;;;;;;;;25.01;33.03;101706.28;5016680;28;923;-62
2021/09/30 06:15:24;;;;;;;;;;;;;;;25.00;32.97;101701.03;5003846;28;1906;-49
2021/09/30 06:17:52;;;;;;;;;;;;;;;24.87;32.91;101704.88;5004510;28;1089;-52
2021/09/30 06:20:17;;;;;;;;;;;;;;;24.70;33.14;101701.06;5015750;28;1169;-52
2021/09/30 06:22:42;;;;;;;;;;;;;;;24.59;33.28;101699.34;5005273;28;901;-50
2021/09/30 06:25:08;;;;;;;;;;;;;;;24.91;33.15;101711.69;5007379;28;1013;-52
2021/09/30 06:27:34;;;;;;;;;;;;;;;24.99;33.04;101700.19;5012263;28;1244;-52
2021/09/30 06:30:00;;;;;;;;;;;;;;;24.91;32.71;101695.53;5012042;28;1042;-51
2021/09/30 06:32:25;;;;;;;;;;;;;;;24.96;32.94;101707.72;5011088;28;1002;-49
2021/09/30 06:34:50;;;;;;;;;;;;;;;25.03;32.72;101707.00;5011009;28;1902;-56
2021/09/30 06:37:16;;;;;;;;;;;;;;;25.04;32.55;101713.22;5011493;28;1157;-52
2021/09/30 06:39:41;;;;;;;;;;;;;;;25.18;32.85;101709.22;5007873;28;1042;-53
2021/09/30 06:42:07;;;;;;;;;;;;;;;25.07;32.58;101710.25;5013303;28;1157;-48
2021/09/30 06:44:32;;;;;;;;;;;;;;;25.15;32.40;101704.97;5016384;28;987;-47
2021/09/30 06:46:57;;;;;;;;;;;;;;;25.28;32.03;101706.47;5007334;28;1017;-45
2021/09/30 06:49:22;;;;;;;;;;;;;;;25.38;31.80;101710.00;5000644;28;1051;-42
2021/09/30 06:51:49;;;;;;;;;;;;;;;25.37;31.78;101708.31;5006720;28;1026;-44
2021/09/30 06:54:15;;;;;;;;;;;;;;;25.56;31.88;101711.88;5012895;28;1141;-42
2021/09/30 06:56:40;;;;;;;;;;;;;;;25.61;31.12;101708.78;5006593;28;1898;-46
2021/09/30 06:59:07;;;;;;;;;;;;;;;25.60;31.12;101707.06;5015320;28;1141;-48
2021/09/30 07:01:33;;;;;;;;;;;;;;;25.70;30.61;101709.72;5004367;28;983;-44
2021/09/30 07:03:58;;;;;;;;;;;;;;;25.74;30.50;101720.06;5015704;28;920;-44
2021/09/30 07:06:24;;;;;;;;;;;;;;;25.69;31.09;101717.00;5007919;28;978;-46
2021/09/30 07:08:49;;;;;;;;;;;;;;;25.75;31.40;101712.81;5008854;28;1083;-44
2021/09/30 07:11:14;;;;;;;;;;;;;;;25.84;31.82;101717.31;5007184;28;1211;-46
2021/09/30 07:13:40;;;;;;;;;;;;;;;25.90;31.69;101719.41;5015875;28;1085;-46
2021/09/30 07:16:05;;;;;;;;;;;;;;;25.94;31.80;101721.81;5004870;28;1894;-45
2021/09/30 07:18:34;;;;;;;;;;;;;;;26.00;31.92;101723.88;5010753;28;1050;-45
2021/09/30 07:21:00;;;;;;;;;;;;;;;26.24;31.76;101723.28;5009653;28;936;-45
2021/09/30 07:23:26;;;;;;;;;;;;;;;26.19;31.83;101725.63;5011652;28;1008;-47
2021/09/30 07:25:51;;;;;;;;;;;;;;;26.28;31.95;101734.63;5008249;28;1038;-46
2021/09/30 07:28:16;;;;;;;;;;;;;;;26.48;31.63;101729.09;5011839;28;951;-46
2021/09/30 07:30:41;;;;;;;;;;;;;;;26.36;31.81;101728.50;5015126;28;1018;-48
2021/09/30 07:33:09;;;;;;;;;;;;;;;26.41;31.73;101720.78;5014825;28;966;-46
2021/09/30 07:35:34;;;;;;;;;;;;;;;26.13;31.91;101726.22;5006053;28;1910;-47
2021/09/30 07:37:59;;;;;;;;;;;;;;;26.32;31.77;101729.78;5004910;28;961;-44
2021/09/30 07:40:25;;;;;;;;;;;;;;;26.36;31.64;101729.34;5004159;28;1252;-45
2021/09/30 07:42:50;;;;;;;;;;;;;;;26.51;31.76;101729.66;5010256;28;1022;-45
2021/09/30 07:45:15;;;;;;;;;;;;;;;26.28;31.50;101734.63;5015361;28;1069;-46
2021/09/30 07:47:41;;;;;;;;;;;;;;;26.49;31.68;101730.81;5014814;28;955;-45
2021/09/30 07:50:06;;;;;;;;;;;;;;;26.53;31.63;101729.50;5015051;28;1030;-45
2021/09/30 07:52:32;;;;;;;;;;;;;;;26.48;31.73;101734.50;5008754;28;1188;-45
2021/09/30 07:54:57;;;;;;;;;;;;;;;26.66;31.65;101731.78;5002223;28;1902;-46
2021/09/30 07:57:22;;;;;;;;;;;;;;;26.52;31.78;101736.75;4997865;28;1229;-44
2021/09/30 07:59:48;;;;;;;;;;;;;;;26.65;32.02;101738.19;5003343;28;1007;-45
2021/09/30 08:02:13;;;;;;;;;;;;;;;26.71;32.17;101745.66;5001986;28;939;-47
2021/09/30 08:04:38;;;;;;;;;;;;;;;26.85;32.15;101749.66;5006884;28;1102;-45
2021/09/30 08:07:06;;;;;;;;;;;;;;;26.87;31.87;101741.41;5008010;28;858;-45
2021/09/30 08:09:34;;;;;;;;;;;;;;;26.84;32.20;101747.97;5004008;28;1192;-46
2021/09/30 08:12:00;;;;;;;;;;;;;;;26.80;32.25;101740.34;4999364;28;979;-45
2021/09/30 08:14:28;;;;;;;;;;;;;;;26.79;32.20;101744.91;5001525;28;1134;-45
2021/09/30 08:16:53;;;;;;;;;;;;;;;26.81;32.20;101737.47;5007697;28;1902;-47
2021/09/30 08:19:18;;;;;;;;;;;;;;;26.58;32.59;101739.81;5010873;28;1134;-46
2021/09/30 08:21:44;;;;;;;;;;;;;;;26.57;32.37;101739.00;5006623;28;991;-45
2021/09/30 08:24:13;;;;;;;;;;;;;;;26.59;32.32;101736.97;5007504;28;1046;-45
2021/09/30 08:26:38;;;;;;;;;;;;;;;26.48;33.11;101739.91;5015968;28;970;-44
2021/09/30 08:29:03;;;;;;;;;;;;;;;26.59;33.24;101741.53;5017852;28;1018;-43
2021/09/30 08:31:29;;;;;;;;;;;;;;;26.67;33.26;101741.59;5013127;28;1151;-45
2021/09/30 08:33:58;;;;;;;;;;;;;;;26.65;33.42;101746.31;5017666;28;1184;-43
2021/09/30 08:36:23;;;;;;;;;;;;;;;26.76;33.30;101743.34;5006322;28;1969;-42
2021/09/30 08:38:48;;;;;;;;;;;;;;;26.67;32.45;101748.84;5004471;28;1003;-42
2021/09/30 08:41:14;;;;;;;;;;;;;;;26.65;31.94;101751.69;5003341;28;1007;-43
2021/09/30 08:43:39;;;;;;;;;;;;;;;26.48;33.27;101756.09;5016366;28;1173;-51
2021/09/30 08:46:06;;;;;;;;;;;;;;;26.12;33.47;101746.97;5017622;28;1236;-49
2021/09/30 08:48:31;;;;;;;;;;;;;;;25.98;33.62;101742.91;4995351;28;1011;-47
2021/09/30 08:50:57;;;;;;;;;;;;;;;26.04;33.46;101742.31;5007262;28;1065;-46
2021/09/30 08:53:22;;;;;;;;;;;;;;;25.80;33.89;101745.56;5004747;28;1025;-46
2021/09/30 08:55:47;;;;;;;;;;;;;;;26.06;33.55;101750.25;5011151;28;1906;-49
2021/09/30 08:58:13;;;;;;;;;;;;;;;26.06;33.41;101750.25;5008326;28;1117;-49
2021/09/30 09:00:39;;;;;;;;;;;;;;;26.09;33.17;101746.41;5004526;28;967;-50
2021/09/30 09:03:04;;;;;;;;;;;;;;;25.66;33.86;101747.75;5009452;28;1144;-46
2021/09/30 09:05:29;;;;;;;;;;;;;;;25.82;33.55;101750.81;5017863;28;1026;-48
2021/09/30 09:07:54;;;;;;;;;;;;;;;25.91;33.15;101739.97;5012297;28;1121;-48
2021/09/30 09:10:21;;;;;;;;;;;;;;;26.17;33.62;101750.03;5012884;28;880;-50
2021/09/30 09:12:46;;;;;;;;;;;;;;;26.16;33.88;101751.03;5007608;28;1216;-49
2021/09/30 09:15:12;;;;;;;;;;;;;;;26.09;33.49;101757.19;5007132;28;1963;-47
2021/09/30 09:17:40;;;;;;;;;;;;;;;26.29;33.24;101755.22;5003327;28;1141;-50
2021/09/30 09:20:05;;;;;;;;;;;;;;;26.28;32.94;101748.13;5014286;28;1192;-49
2021/09/30 09:22:31;;;;;;;;;;;;;;;26.39;32.90;101757.88;5004206;28;1010;-48
2021/09/30 09:25:12;;;;;;;;;;;;;;;26.39;32.76;101756.00;5009531;28;999;-51
2021/09/30 09:27:49;;;;;;;;;;;;;;;26.09;33.54;101757.19;5009796;28;1049;-50
2021/09/30 09:30:34;;;;;;;;;;;;;;;26.12;33.42;101762.28;5003645;28;943;-48
2021/09/30 09:33:08;;;;;;;;;;;;;;;26.35;32.87;101751.09;5012952;28;1018;-46
2021/09/30 09:35:51;;;;;;;;;;;;;;;26.46;32.75;101756.25;5010486;28;1968;-48
2021/09/30 09:38:17;;;;;;;;;;;;;;;26.54;32.66;101750.09;5006046;28;973;-48
2021/09/30 09:40:42;;;;;;;;;;;;;;;26.45;32.32;101754.56;5005727;28;1208;-47
2021/09/30 09:43:26;;;;;;;;;;;;;;;26.52;32.63;101750.25;5008031;28;1118;-47
2021/09/30 09:45:52;;;;;;;;;;;;;;;26.28;32.72;101742.72;5006031;28;1153;-47
2021/09/30 09:48:17;;;;;;;;;;;;;;;26.44;32.71;101747.47;5008016;28;1038;-46
2021/09/30 09:50:43;;;;;;;;;;;;;;;26.50;32.95;101749.56;5001755;28;1220;-47
2021/09/30 09:53:08;;;;;;;;;;;;;;;26.26;32.64;101750.97;5015890;28;941;-52
2021/09/30 09:55:34;;;;;;;;;;;;;;;26.43;32.94;101740.38;5009177;28;1955;-51
2021/09/30 09:58:03;;;;;;;;;;;;;;;26.74;33.07;101747.22;5012324;28;927;-52
2021/09/30 10:00:28;;;;;;;;;;;;;;;26.74;32.67;101737.25;5009862;28;978;-56
2021/09/30 10:02:54;;;;;;;;;;;;;;;26.61;32.93;101751.16;5001957;28;991;-54
2021/09/30 10:05:19;;;;;;;;;;;;;;;26.34;33.20;101746.69;5004213;28;1125;-51
2021/09/30 10:07:46;;;;;;;;;;;;;;;26.66;32.61;101753.38;5010615;28;854;-49
2021/09/30 10:10:11;;;;;;;;;;;;;;;26.93;32.65;101751.56;5005218;28;1239;-48
2021/09/30 10:12:37;;;;;;;;;;;;;;;27.27;32.33;101741.88;4981130;28;960;-50
2021/09/30 10:15:02;;;;;;;;;;;;;;;27.35;32.44;101749.16;4985917;28;1946;-50
2021/09/30 10:17:28;;;;;;;;;;;;;;;27.24;32.47;101751.13;5003856;28;1002;-46
2021/09/30 10:19:53;;;;;;;;;;;;;;;27.33;32.07;101748.47;5024390;28;966;-48
2021/09/30 10:22:18;;;;;;;;;;;;;;;27.18;32.57;101749.06;4999536;28;1177;-47
2021/09/30 10:24:44;;;;;;;;;;;;;;;27.18;32.92;101754.47;5008200;28;904;-47
2021/09/30 10:27:09;;;;;;;;;;;;;;;27.18;32.83;101749.06;4991921;28;1463;-46
2021/09/30 10:29:37;;;;;;;;;;;;;;;27.20;32.67;101755.16;5005578;28;1409;-48
2021/09/30 10:32:03;;;;;;;;;;;;;;;26.98;33.32;101748.41;5006540;28;941;-49
2021/09/30 10:34:28;;;;;;;;;;;;;;;27.04;33.29;101755.91;5004162;28;1171;-47
2021/09/30 10:36:54;;;;;;;;;;;;;;;27.16;33.17;101766.47;5004886;28;1969;-49
2021/09/30 10:39:25;;;;;;;;;;;;;;;27.00;33.68;101768.00;5006314;28;1188;-50
2021/09/30 10:41:54;;;;;;;;;;;;;;;26.92;33.66;101770.63;5010263;28;960;-45
2021/09/30 10:44:21;;;;;;;;;;;;;;;26.85;33.86;101773.97;4998787;28;979;-49
2021/09/30 10:46:47;;;;;;;;;;;;;;;27.01;33.91;101772.38;5008981;28;1011;-47
2021/09/30 10:49:30;;;;;;;;;;;;;;;26.96;34.04;101770.16;5015979;28;1105;-44
2021/09/30 10:52:14;;;;;;;;;;;;;;;26.95;34.49;101776.56;5009884;28;1165;-45
2021/09/30 10:54:40;;;;;;;;;;;;;;;26.97;33.79;101771.00;5008892;28;963;-46
2021/09/30 10:57:25;;;;;;;;;;;;;;;26.91;34.13;101767.06;5002606;28;1902;-45
2021/09/30 10:59:50;;;;;;;;;;;;;;;26.85;33.94;101771.28;5005651;28;1308;-45
2021/09/30 11:02:15;;;;;;;;;;;;;;;26.89;34.61;101772.63;5005241;28;1161;-44
2021/09/30 11:04:59;;;;;;;;;;;;;;;26.86;34.61;101774.81;5005993;28;964;-45
2021/09/30 11:07:25;;;;;;;;;;;;;;;26.73;34.67;101765.25;5012442;28;964;-44
2021/09/30 11:10:08;;;;;;;;;;;;;;;26.75;34.65;101757.88;5001764;28;983;-45
2021/09/30 11:12:36;;;;;;;;;;;;;;;26.88;34.81;101765.56;5000709;28;1154;-44
2021/09/30 11:15:01;;;;;;;;;;;;;;;26.92;33.85;101763.38;5005876;28;1953;-45
2021/09/30 11:17:36;;;;;;;;;;;;;;;26.71;34.70;101763.72;4991831;28;1154;-41
2021/09/30 11:20:20;;;;;;;;;;;;;;;27.12;34.36;101766.78;5008456;28;979;-41
2021/09/30 11:22:45;;;;;;;;;;;;;;;27.22;33.78;101766.69;5003742;28;1154;-41
2021/09/30 11:25:11;;;;;;;;;;;;;;;27.22;33.88;101772.06;5003414;28;1007;-42
2021/09/30 11:27:36;;;;;;;;;;;;;;;27.17;33.80;101771.69;5005221;28;951;-41
2021/09/30 11:30:14;;;;;;;;;;;;;;;27.22;33.89;101768.53;5005484;28;1121;-42
2021/09/30 11:32:40;;;;;;;;;;;;;;;27.05;34.14;101765.72;5002853;28;959;-42
2021/09/30 11:35:05;;;;;;;;;;;;;;;27.04;34.22;101763.16;4999641;28;1973;-42
2021/09/30 11:37:35;;;;;;;;;;;;;;;27.16;34.12;101763.75;4987508;28;1174;-42
2021/09/30 11:40:00;;;;;;;;;;;;;;;27.21;33.88;101764.97;5012931;28;1169;-42
2021/09/30 11:42:33;;;;;;;;;;;;;;;27.26;33.69;101768.03;5014838;28;1062;-42
2021/09/30 11:45:01;;;;;;;;;;;;;;;27.32;33.50;101761.16;5014625;28;994;-43
2021/09/30 11:47:27;;;;;;;;;;;;;;;27.34;33.52;101761.00;5005984;28;1160;-42
2021/09/30 11:49:53;;;;;;;;;;;;;;;27.24;33.77;101763.81;5011386;28;1023;-43
2021/09/30 11:52:18;;;;;;;;;;;;;;;27.45;33.62;101763.41;5012063;28;1023;-42
2021/09/30 11:54:43;;;;;;;;;;;;;;;27.47;33.57;101753.31;5011202;28;971;-43
2021/09/30 11:57:16;;;;;;;;;;;;;;;27.32;33.73;101754.91;5009330;28;1988;-44
2021/09/30 11:59:41;;;;;;;;;;;;;;;27.35;33.84;101752.72;5005509;28;979;-42
2021/09/30 12:02:07;;;;;;;;;;;;;;;27.14;34.31;101751.25;5018763;28;1201;-42
2021/09/30 12:04:38;;;;;;;;;;;;;;;27.22;34.01;101752.31;5015735;28;1231;-42
2021/09/30 12:07:04;;;;;;;;;;;;;;;27.33;34.06;101754.75;5007508;28;1280;-42
2021/09/30 12:09:32;;;;;;;;;;;;;;;27.12;34.60;101755.13;5017475;28;1007;-42
2021/09/30 12:12:03;;;;;;;;;;;;;;;27.30;34.30;101760.47;5018228;28;1401;-42
2021/09/30 12:14:34;;;;;;;;;;;;;;;27.06;35.05;101769.25;5017708;28;1086;-43
2021/09/30 12:17:00;;;;;;;;;;;;;;;27.18;34.80;101765.28;5005330;28;1906;-42
2021/09/30 12:19:29;;;;;;;;;;;;;;;26.88;35.87;101756.59;5005299;28;1027;-42
2021/09/30 12:21:54;;;;;;;;;;;;;;;26.85;35.94;101757.78;5009664;28;1200;-42
2021/09/30 12:24:20;;;;;;;;;;;;;;;27.08;35.73;101757.28;5012179;28;1058;-42
2021/09/30 12:26:45;;;;;;;;;;;;;;;27.17;35.46;101749.25;5013775;28;1129;-42
2021/09/30 12:29:10;;;;;;;;;;;;;;;27.19;35.54;101756.19;5008771;28;1015;-42
2021/09/30 12:31:36;;;;;;;;;;;;;;;27.12;35.41;101760.53;5006688;28;1130;-42
2021/09/30 12:34:01;;;;;;;;;;;;;;;27.11;35.55;101772.34;5008937;28;1367;-42
2021/09/30 12:36:27;;;;;;;;;;;;;;;27.14;35.29;101769.31;4988368;28;1986;-43
2021/09/30 12:38:56;;;;;;;;;;;;;;;27.18;35.70;101773.38;5007095;28;1137;-42
2021/09/30 12:41:22;;;;;;;;;;;;;;;27.13;35.82;101767.59;5003751;28;1073;-42
2021/09/30 12:43:47;;;;;;;;;;;;;;;27.07;35.92;101765.53;5014909;28;1066;-42
2021/09/30 12:46:13;;;;;;;;;;;;;;;27.12;35.50;101768.63;5016185;28;1006;-43
2021/09/30 12:48:38;;;;;;;;;;;;;;;27.18;35.47;101770.69;5012682;28;1019;-42
2021/09/30 12:51:05;;;;;;;;;;;;;;;27.15;35.44;101762.91;5017625;28;1215;-43
2021/09/30 12:53:31;;;;;;;;;;;;;;;27.15;34.95;101768.31;5014764;28;968;-42
2021/09/30 12:56:06;;;;;;;;;;;;;;;27.07;35.01;101766.41;5007645;28;1969;-42
2021/09/30 12:58:32;;;;;;;;;;;;;;;27.17;34.92;101769.00;5015357;28;942;-42
2021/09/30 13:00:58;;;;;;;;;;;;;;;27.07;35.34;101774.50;5015431;28;1181;-42
2021/09/30 13:03:23;;;;;;;;;;;;;;;27.16;34.86;101770.00;5017518;28;1029;-43
2021/09/30 13:05:50;;;;;;;;;;;;;;;27.17;34.75;101774.41;5013741;28;1169;-43
2021/09/30 13:08:37;;;;;;;;;;;;;;;27.13;35.18;101776.56;5009389;28;1026;-42
2021/09/30 13:11:21;;;;;;;;;;;;;;;27.13;35.00;101763.06;5006183;28;975;-43
2021/09/30 13:13:46;;;;;;;;;;;;;;;27.16;35.12;101767.28;5009051;28;932;-42
2021/09/30 13:16:21;;;;;;;;;;;;;;;27.08;35.03;101765.38;5011838;28;1965;-43
2021/09/30 13:18:47;;;;;;;;;;;;;;;26.95;35.51;101764.91;5013954;28;1118;-44
2021/09/30 13:21:12;;;;;;;;;;;;;;;26.95;34.85;101762.22;5017637;28;1384;-45
2021/09/30 13:23:38;;;;;;;;;;;;;;;26.92;34.77;101763.38;5015691;28;1003;-46
2021/09/30 13:26:04;;;;;;;;;;;;;;;26.71;34.94;101758.34;5014723;28;947;-49
2021/09/30 13:28:29;;;;;;;;;;;;;;;26.80;35.12;101764.63;5002295;28;1467;-50
2021/09/30 13:30:55;;;;;;;;;;;;;;;26.64;35.08;101767.03;5017078;28;967;-47
2021/09/30 13:33:20;;;;;;;;;;;;;;;26.52;35.37;101766.44;5017099;28;1010;-46
2021/09/30 13:35:45;;;;;;;;;;;;;;;26.69;35.01;101757.63;5004096;28;1878;-46
2021/09/30 13:38:10;;;;;;;;;;;;;;;26.58;35.20;101764.09;5014218;28;1531;-47
2021/09/30 13:40:36;;;;;;;;;;;;;;;26.46;35.12;101764.34;5012968;28;1038;-47
2021/09/30 13:43:01;;;;;;;;;;;;;;;26.50;34.76;101765.75;5008549;28;1061;-49
2021/09/30 13:45:26;;;;;;;;;;;;;;;26.56;34.78;101766.97;5012903;28;1070;-47
2021/09/30 13:47:52;;;;;;;;;;;;;;;26.43;34.83;101764.66;5008161;28;995;-48
2021/09/30 13:50:18;;;;;;;;;;;;;;;26.55;34.83;101765.28;5013815;28;978;-49
2021/09/30 13:52:44;;;;;;;;;;;;;;;26.45;34.77;101770.75;5010060;28;1153;-48
2021/09/30 13:55:09;;;;;;;;;;;;;;;26.34;35.67;101770.97;5008039;28;1971;-49
2021/09/30 13:57:35;;;;;;;;;;;;;;;26.38;35.46;101772.34;5014333;28;1169;-48
2021/09/30 14:00:01;;;;;;;;;;;;;;;26.34;35.77;101766.41;5008217;28;1073;-47
2021/09/30 14:02:27;;;;;;;;;;;;;;;26.33;35.87;101766.56;5001949;28;1440;-48
2021/09/30 14:04:53;;;;;;;;;;;;;;;25.70;37.09;101766.31;5016380;28;947;-48
2021/09/30 14:07:18;;;;;;;;;;;;;;;25.50;37.12;101761.84;5009029;28;1469;-51
2021/09/30 14:09:43;;;;;;;;;;;;;;;25.65;36.26;101761.38;5015362;28;1117;-49
2021/09/30 14:12:08;;;;;;;;;;;;;;;25.71;36.63;101771.56;5004861;28;3193;-49
2021/09/30 14:14:34;;;;;;;;;;;;;;;25.55;36.48;101756.88;5009189;28;1260;-52
2021/09/30 14:16:59;;;;;;;;;;;;;;;25.60;36.22;101761.81;5008852;28;1906;-50
2021/09/30 14:19:25;;;;;;;;;;;;;;;25.61;36.38;101762.66;5001955;28;1034;-50
2021/09/30 14:21:51;;;;;;;;;;;;;;;25.44;37.37;101765.97;5007664;28;1109;-53
2021/09/30 14:24:16;;;;;;;;;;;;;;;25.37;38.02;101756.78;5000873;28;1038;-52
2021/09/30 14:26:42;;;;;;;;;;;;;;;25.17;38.21;101762.19;5007186;28;1047;-49
2021/09/30 14:29:07;;;;;;;;;;;;;;;24.25;39.85;101759.81;5010299;28;1026;-49
2021/09/30 14:31:32;;;;;;;;;;;;;;;24.25;39.48;101753.56;5013203;28;1279;-50
2021/09/30 14:33:58;;;;;;;;;;;;;;;24.19;39.64;101755.00;5007807;28;1003;-52
2021/09/30 14:36:23;;;;;;;;;;;;;;;24.21;39.74;101751.16;5006943;28;1910;-49
2021/09/30 14:38:48;;;;;;;;;;;;;;;24.65;39.02;101751.75;5003720;28;1219;-48
2021/09/30 14:41:14;;;;;;;;;;;;;;;24.37;39.21;101735.47;5005654;28;1126;-48
2021/09/30 14:43:39;;;;;;;;;;;;;;;24.51;39.12;101739.56;5002834;28;1122;-52
2021/09/30 14:46:07;;;;;;;;;;;;;;;24.52;39.12;101736.75;5006466;28;1446;-49
2021/09/30 14:48:33;;;;;;;;;;;;;;;24.85;38.78;101741.84;5015447;28;1026;-49
2021/09/30 14:50:59;;;;;;;;;;;;;;;24.86;38.73;101740.00;5002523;28;1283;-52
2021/09/30 14:53:24;;;;;;;;;;;;;;;24.94;38.06;101740.16;5003361;28;1000;-51
2021/09/30 14:55:49;;;;;;;;;;;;;;;24.80;37.46;101741.41;4998934;28;1902;-54
2021/09/30 14:58:15;;;;;;;;;;;;;;;24.87;37.67;101733.63;4997098;28;1026;-52
2021/09/30 15:00:40;;;;;;;;;;;;;;;24.85;37.50;101731.06;5004331;28;1432;-51
2021/09/30 15:03:05;;;;;;;;;;;;;;;24.64;37.49;101723.16;5006971;28;1026;-55
2021/09/30 15:05:33;;;;;;;;;;;;;;;24.46;37.98;101723.84;5001603;28;1110;-52
2021/09/30 15:07:58;;;;;;;;;;;;;;;24.37;38.04;101725.56;5010994;28;983;-54
2021/09/30 15:10:24;;;;;;;;;;;;;;;24.63;37.47;101716.06;5000671;28;1093;-53
2021/09/30 15:12:49;;;;;;;;;;;;;;;24.65;37.64;101712.25;5002617;28;1109;-49
2021/09/30 15:15:14;;;;;;;;;;;;;;;24.92;37.06;101716.06;5003296;28;1902;-51
2021/09/30 15:22:33;;;;;;;;;;;;;;;24.45;37.51;101712.28;5008075;28;975;-50
2021/09/30 15:24:59;;;;;;;;;;;;;;;24.64;36.97;101710.53;5008072;28;1189;-52
2021/09/30 15:27:24;;;;;;;;;;;;;;;24.75;36.83;101716.78;5006122;28;1164;-52
2021/09/30 15:29:49;;;;;;;;;;;;;;;24.75;36.87;101724.84;5007918;28;1149;-54
2021/09/30 15:32:15;;;;;;;;;;;;;;;24.76;36.76;101715.78;5003116;28;1014;-50
2021/09/30 15:34:40;;;;;;;;;;;;;;;24.57;36.60;101721.03;5004107;28;1077;-52
2021/09/30 15:37:05;;;;;;;;;;;;;;;24.60;36.19;101722.59;5002398;28;1915;-51
2021/09/30 15:39:31;;;;;;;;;;;;;;;24.58;36.13;101730.81;5000832;28;1027;-49
2021/09/30 15:41:56;;;;;;;;;;;;;;;24.45;36.53;101735.63;5011910;28;1165;-50